sensor_id;sensor_type;location;lat;lon;timestamp;P1;durP1;ratioP1;P2;durP2;ratioP2
20207;SDS011;10263;48.716;8.760;2022-07-23T00:00:40;4.68;;;4.22;;
20207;SDS011;10263;48.716;8.760;2022-07-23T00:03:07;4.63;;;4.22;;
20207;SDS011;10263;48.716;8.760;2022-07-23T00:05:34;5.32;;;4.80;;
20207;SDS011;10263;48.716;8.760;2022-07-23T00:08:01;7.03;;;4.63;;
20207;SDS011;10263;48.716;8.760;2022-07-23T00:10:28;4.50;;;4.10;;
20207;SDS011;10263;48.716;8.760;2022-07-23T00:12:55;5.22;;;4.80;;
20207;SDS011;10263;48.716;8.760;2022-07-23T00:15:21;4.95;;;4.55;;
20207;SDS011;10263;48.716;8.760;2022-07-23T00:17:49;5.22;;;4.60;;
20207;SDS011;10263;48.716;8.760;2022-07-23T00:20:16;5.10;;;4.68;;
20207;SDS011;10263;48.716;8.760;2022-07-23T00:22:46;4.88;;;4.47;;
20207;SDS011;10263;48.716;8.760;2022-07-23T00:25:13;5.38;;;4.43;;
20207;SDS011;10263;48.716;8.760;2022-07-23T00:27:41;5.88;;;4.22;;
20207;SDS011;10263;48.716;8.760;2022-07-23T00:30:08;4.88;;;4.38;;
20207;SDS011;10263;48.716;8.760;2022-07-23T00:32:44;4.53;;;4.18;;
20207;SDS011;10263;48.716;8.760;2022-07-23T00:35:13;5.20;;;4.70;;
20207;SDS011;10263;48.716;8.760;2022-07-23T00:37:40;5.13;;;4.38;;
20207;SDS011;10263;48.716;8.760;2022-07-23T00:40:08;5.32;;;4.82;;
20207;SDS011;10263;48.716;8.760;2022-07-23T00:42:36;5.38;;;4.55;;
20207;SDS011;10263;48.716;8.760;2022-07-23T00:45:03;5.05;;;4.55;;
20207;SDS011;10263;48.716;8.760;2022-07-23T00:47:30;5.05;;;4.65;;
20207;SDS011;10263;48.716;8.760;2022-07-23T00:49:58;4.88;;;4.45;;
20207;SDS011;10263;48.716;8.760;2022-07-23T00:52:26;5.38;;;4.10;;
20207;SDS011;10263;48.716;8.760;2022-07-23T00:54:53;5.22;;;4.72;;
20207;SDS011;10263;48.716;8.760;2022-07-23T00:57:20;6.13;;;4.47;;
20207;SDS011;10263;48.716;8.760;2022-07-23T00:59:46;4.72;;;4.32;;
20207;SDS011;10263;48.716;8.760;2022-07-23T01:02:13;5.03;;;4.63;;
20207;SDS011;10263;48.716;8.760;2022-07-23T01:04:40;4.47;;;4.05;;
20207;SDS011;10263;48.716;8.760;2022-07-23T01:07:07;4.65;;;4.25;;
20207;SDS011;10263;48.716;8.760;2022-07-23T01:09:35;5.20;;;4.38;;
20207;SDS011;10263;48.716;8.760;2022-07-23T01:12:03;4.30;;;3.90;;
20207;SDS011;10263;48.716;8.760;2022-07-23T01:14:31;4.43;;;4.03;;
20207;SDS011;10263;48.716;8.760;2022-07-23T01:16:58;4.30;;;3.90;;
20207;SDS011;10263;48.716;8.760;2022-07-23T01:19:25;4.70;;;4.22;;
20207;SDS011;10263;48.716;8.760;2022-07-23T01:21:51;4.15;;;3.85;;
20207;SDS011;10263;48.716;8.760;2022-07-23T01:24:22;5.70;;;4.78;;
20207;SDS011;10263;48.716;8.760;2022-07-23T01:26:57;4.28;;;3.72;;
20207;SDS011;10263;48.716;8.760;2022-07-23T01:29:25;4.20;;;3.80;;
20207;SDS011;10263;48.716;8.760;2022-07-23T01:31:53;4.45;;;4.05;;
20207;SDS011;10263;48.716;8.760;2022-07-23T01:34:20;5.25;;;3.92;;
20207;SDS011;10263;48.716;8.760;2022-07-23T01:36:46;3.97;;;3.67;;
20207;SDS011;10263;48.716;8.760;2022-07-23T01:39:15;3.72;;;3.42;;
20207;SDS011;10263;48.716;8.760;2022-07-23T01:41:44;3.88;;;3.58;;
20207;SDS011;10263;48.716;8.760;2022-07-23T01:44:12;4.07;;;3.30;;
20207;SDS011;10263;48.716;8.760;2022-07-23T01:46:40;4.28;;;3.83;;
20207;SDS011;10263;48.716;8.760;2022-07-23T01:49:08;4.80;;;3.78;;
20207;SDS011;10263;48.716;8.760;2022-07-23T01:51:58;4.57;;;4.00;;
20207;SDS011;10263;48.716;8.760;2022-07-23T01:54:35;4.13;;;3.72;;
20207;SDS011;10263;48.716;8.760;2022-07-23T01:57:06;3.92;;;3.63;;
20207;SDS011;10263;48.716;8.760;2022-07-23T01:59:34;4.93;;;4.43;;
20207;SDS011;10263;48.716;8.760;2022-07-23T02:02:02;4.65;;;4.25;;
20207;SDS011;10263;48.716;8.760;2022-07-23T02:04:30;4.75;;;3.95;;
20207;SDS011;10263;48.716;8.760;2022-07-23T02:07:00;4.00;;;3.70;;
20207;SDS011;10263;48.716;8.760;2022-07-23T02:09:27;4.00;;;3.58;;
20207;SDS011;10263;48.716;8.760;2022-07-23T02:11:54;4.45;;;4.10;;
20207;SDS011;10263;48.716;8.760;2022-07-23T02:14:22;4.65;;;4.28;;
20207;SDS011;10263;48.716;8.760;2022-07-23T02:16:49;4.32;;;3.92;;
20207;SDS011;10263;48.716;8.760;2022-07-23T02:19:16;4.45;;;3.83;;
20207;SDS011;10263;48.716;8.760;2022-07-23T02:21:43;4.20;;;3.90;;
20207;SDS011;10263;48.716;8.760;2022-07-23T02:24:10;4.60;;;4.20;;
20207;SDS011;10263;48.716;8.760;2022-07-23T02:26:39;5.15;;;4.00;;
20207;SDS011;10263;48.716;8.760;2022-07-23T02:29:07;5.20;;;4.78;;
20207;SDS011;10263;48.716;8.760;2022-07-23T02:31:35;4.82;;;4.30;;
20207;SDS011;10263;48.716;8.760;2022-07-23T02:34:02;5.05;;;4.03;;
20207;SDS011;10263;48.716;8.760;2022-07-23T02:36:29;4.50;;;4.10;;
20207;SDS011;10263;48.716;8.760;2022-07-23T02:38:57;4.82;;;4.32;;
20207;SDS011;10263;48.716;8.760;2022-07-23T02:41:26;4.55;;;4.15;;
20207;SDS011;10263;48.716;8.760;2022-07-23T02:43:52;4.80;;;4.30;;
20207;SDS011;10263;48.716;8.760;2022-07-23T02:46:20;5.72;;;4.20;;
20207;SDS011;10263;48.716;8.760;2022-07-23T02:48:48;4.45;;;4.05;;
20207;SDS011;10263;48.716;8.760;2022-07-23T02:51:15;4.38;;;3.97;;
20207;SDS011;10263;48.716;8.760;2022-07-23T02:53:50;4.78;;;4.20;;
20207;SDS011;10263;48.716;8.760;2022-07-23T02:56:16;4.68;;;4.20;;
20207;SDS011;10263;48.716;8.760;2022-07-23T02:58:43;4.70;;;4.30;;
20207;SDS011;10263;48.716;8.760;2022-07-23T03:01:10;4.68;;;4.20;;
20207;SDS011;10263;48.716;8.760;2022-07-23T03:03:37;4.82;;;4.38;;
20207;SDS011;10263;48.716;8.760;2022-07-23T03:06:05;4.57;;;4.18;;
20207;SDS011;10263;48.716;8.760;2022-07-23T03:08:37;4.57;;;4.18;;
20207;SDS011;10263;48.716;8.760;2022-07-23T03:11:03;4.68;;;4.25;;
20207;SDS011;10263;48.716;8.760;2022-07-23T03:13:32;4.88;;;4.38;;
20207;SDS011;10263;48.716;8.760;2022-07-23T03:15:59;4.57;;;4.18;;
20207;SDS011;10263;48.716;8.760;2022-07-23T03:18:26;4.65;;;4.25;;
20207;SDS011;10263;48.716;8.760;2022-07-23T03:20:53;5.25;;;4.35;;
20207;SDS011;10263;48.716;8.760;2022-07-23T03:23:22;4.93;;;4.43;;
20207;SDS011;10263;48.716;8.760;2022-07-23T03:25:48;4.85;;;4.40;;
20207;SDS011;10263;48.716;8.760;2022-07-23T03:28:16;4.75;;;4.30;;
20207;SDS011;10263;48.716;8.760;2022-07-23T03:30:44;4.53;;;4.10;;
20207;SDS011;10263;48.716;8.760;2022-07-23T03:33:13;5.43;;;4.68;;
20207;SDS011;10263;48.716;8.760;2022-07-23T03:35:41;4.80;;;4.40;;
20207;SDS011;10263;48.716;8.760;2022-07-23T03:38:16;4.40;;;4.00;;
20207;SDS011;10263;48.716;8.760;2022-07-23T03:40:44;5.35;;;4.85;;
20207;SDS011;10263;48.716;8.760;2022-07-23T03:43:11;4.78;;;4.28;;
20207;SDS011;10263;48.716;8.760;2022-07-23T03:45:38;5.20;;;4.72;;
20207;SDS011;10263;48.716;8.760;2022-07-23T03:48:05;5.07;;;4.40;;
20207;SDS011;10263;48.716;8.760;2022-07-23T03:50:31;5.40;;;4.50;;
20207;SDS011;10263;48.716;8.760;2022-07-23T03:52:59;4.72;;;4.32;;
20207;SDS011;10263;48.716;8.760;2022-07-23T03:55:26;4.43;;;4.03;;
20207;SDS011;10263;48.716;8.760;2022-07-23T03:57:54;4.75;;;4.35;;
20207;SDS011;10263;48.716;8.760;2022-07-23T04:00:22;4.63;;;4.22;;
20207;SDS011;10263;48.716;8.760;2022-07-23T04:02:50;4.97;;;4.07;;
20207;SDS011;10263;48.716;8.760;2022-07-23T04:05:16;4.53;;;4.13;;
20207;SDS011;10263;48.716;8.760;2022-07-23T04:07:47;4.75;;;4.35;;
20207;SDS011;10263;48.716;8.760;2022-07-23T04:10:14;4.72;;;4.32;;
20207;SDS011;10263;48.716;8.760;2022-07-23T04:12:41;4.30;;;3.90;;
20207;SDS011;10263;48.716;8.760;2022-07-23T04:15:09;4.88;;;4.40;;
20207;SDS011;10263;48.716;8.760;2022-07-23T04:17:36;4.78;;;4.38;;
20207;SDS011;10263;48.716;8.760;2022-07-23T04:20:03;4.78;;;4.28;;
20207;SDS011;10263;48.716;8.760;2022-07-23T04:22:37;4.97;;;4.57;;
20207;SDS011;10263;48.716;8.760;2022-07-23T04:25:04;5.22;;;4.82;;
20207;SDS011;10263;48.716;8.760;2022-07-23T04:27:31;5.05;;;4.63;;
20207;SDS011;10263;48.716;8.760;2022-07-23T04:29:59;5.35;;;4.82;;
20207;SDS011;10263;48.716;8.760;2022-07-23T04:32:27;5.68;;;4.68;;
20207;SDS011;10263;48.716;8.760;2022-07-23T04:34:54;5.78;;;4.53;;
20207;SDS011;10263;48.716;8.760;2022-07-23T04:37:22;5.13;;;4.70;;
20207;SDS011;10263;48.716;8.760;2022-07-23T04:39:48;5.18;;;4.68;;
20207;SDS011;10263;48.716;8.760;2022-07-23T04:42:15;5.20;;;4.70;;
20207;SDS011;10263;48.716;8.760;2022-07-23T04:44:42;5.65;;;5.10;;
20207;SDS011;10263;48.716;8.760;2022-07-23T04:47:09;5.60;;;5.10;;
20207;SDS011;10263;48.716;8.760;2022-07-23T04:49:38;5.30;;;4.70;;
20207;SDS011;10263;48.716;8.760;2022-07-23T04:52:05;5.13;;;4.63;;
20207;SDS011;10263;48.716;8.760;2022-07-23T04:54:32;5.30;;;4.80;;
20207;SDS011;10263;48.716;8.760;2022-07-23T04:56:59;4.78;;;4.38;;
20207;SDS011;10263;48.716;8.760;2022-07-23T04:59:26;6.60;;;5.15;;
20207;SDS011;10263;48.716;8.760;2022-07-23T05:01:58;6.72;;;5.15;;
20207;SDS011;10263;48.716;8.760;2022-07-23T05:04:25;5.63;;;4.97;;
20207;SDS011;10263;48.716;8.760;2022-07-23T05:06:53;5.45;;;4.95;;
20207;SDS011;10263;48.716;8.760;2022-07-23T05:09:20;5.30;;;4.70;;
20207;SDS011;10263;48.716;8.760;2022-07-23T05:11:46;4.55;;;4.13;;
20207;SDS011;10263;48.716;8.760;2022-07-23T05:14:13;5.15;;;4.65;;
20207;SDS011;10263;48.716;8.760;2022-07-23T05:16:41;5.28;;;4.70;;
20207;SDS011;10263;48.716;8.760;2022-07-23T05:19:14;5.35;;;4.78;;
20207;SDS011;10263;48.716;8.760;2022-07-23T05:21:41;5.65;;;4.90;;
20207;SDS011;10263;48.716;8.760;2022-07-23T05:24:09;5.05;;;4.63;;
20207;SDS011;10263;48.716;8.760;2022-07-23T05:26:36;5.63;;;4.93;;
20207;SDS011;10263;48.716;8.760;2022-07-23T05:29:03;4.80;;;4.40;;
20207;SDS011;10263;48.716;8.760;2022-07-23T05:31:30;4.55;;;4.15;;
20207;SDS011;10263;48.716;8.760;2022-07-23T05:33:56;5.53;;;4.82;;
20207;SDS011;10263;48.716;8.760;2022-07-23T05:36:24;5.28;;;4.75;;
20207;SDS011;10263;48.716;8.760;2022-07-23T05:38:54;5.53;;;4.50;;
20207;SDS011;10263;48.716;8.760;2022-07-23T05:41:23;5.50;;;4.90;;
20207;SDS011;10263;48.716;8.760;2022-07-23T05:43:49;4.80;;;4.40;;
20207;SDS011;10263;48.716;8.760;2022-07-23T05:46:17;5.70;;;5.20;;
20207;SDS011;10263;48.716;8.760;2022-07-23T05:48:54;5.88;;;5.05;;
20207;SDS011;10263;48.716;8.760;2022-07-23T05:51:46;5.65;;;4.85;;
20207;SDS011;10263;48.716;8.760;2022-07-23T05:54:16;5.60;;;5.10;;
20207;SDS011;10263;48.716;8.760;2022-07-23T05:56:44;6.60;;;4.93;;
20207;SDS011;10263;48.716;8.760;2022-07-23T05:59:11;7.38;;;4.82;;
20207;SDS011;10263;48.716;8.760;2022-07-23T06:01:39;5.38;;;4.88;;
20207;SDS011;10263;48.716;8.760;2022-07-23T06:04:09;5.30;;;4.80;;
20207;SDS011;10263;48.716;8.760;2022-07-23T06:06:40;5.63;;;4.65;;
20207;SDS011;10263;48.716;8.760;2022-07-23T06:09:09;4.55;;;4.15;;
20207;SDS011;10263;48.716;8.760;2022-07-23T06:11:39;5.20;;;4.70;;
20207;SDS011;10263;48.716;8.760;2022-07-23T06:14:07;5.28;;;4.80;;
20207;SDS011;10263;48.716;8.760;2022-07-23T06:16:46;6.45;;;4.88;;
20207;SDS011;10263;48.716;8.760;2022-07-23T06:19:12;5.50;;;5.00;;
20207;SDS011;10263;48.716;8.760;2022-07-23T06:21:39;6.13;;;5.38;;
20207;SDS011;10263;48.716;8.760;2022-07-23T06:24:06;5.75;;;4.45;;
20207;SDS011;10263;48.716;8.760;2022-07-23T06:26:33;5.18;;;4.68;;
20207;SDS011;10263;48.716;8.760;2022-07-23T06:29:00;4.93;;;4.50;;
20207;SDS011;10263;48.716;8.760;2022-07-23T06:31:28;5.78;;;4.90;;
20207;SDS011;10263;48.716;8.760;2022-07-23T06:33:55;4.85;;;4.45;;
20207;SDS011;10263;48.716;8.760;2022-07-23T06:36:21;4.88;;;4.47;;
20207;SDS011;10263;48.716;8.760;2022-07-23T06:38:48;5.30;;;4.78;;
20207;SDS011;10263;48.716;8.760;2022-07-23T06:41:15;5.20;;;4.70;;
20207;SDS011;10263;48.716;8.760;2022-07-23T06:43:42;5.30;;;4.80;;
20207;SDS011;10263;48.716;8.760;2022-07-23T06:46:09;7.13;;;4.60;;
20207;SDS011;10263;48.716;8.760;2022-07-23T06:48:38;6.50;;;4.65;;
20207;SDS011;10263;48.716;8.760;2022-07-23T06:51:05;6.18;;;4.82;;
20207;SDS011;10263;48.716;8.760;2022-07-23T06:53:32;6.55;;;5.05;;
20207;SDS011;10263;48.716;8.760;2022-07-23T06:56:00;5.20;;;4.70;;
20207;SDS011;10263;48.716;8.760;2022-07-23T06:58:26;5.47;;;5.07;;
20207;SDS011;10263;48.716;8.760;2022-07-23T07:00:53;6.38;;;4.57;;
20207;SDS011;10263;48.716;8.760;2022-07-23T07:03:21;5.22;;;4.75;;
20207;SDS011;10263;48.716;8.760;2022-07-23T07:05:50;5.55;;;4.93;;
20207;SDS011;10263;48.716;8.760;2022-07-23T07:08:17;5.70;;;5.15;;
20207;SDS011;10263;48.716;8.760;2022-07-23T07:10:44;6.22;;;5.05;;
20207;SDS011;10263;48.716;8.760;2022-07-23T07:13:12;5.90;;;5.40;;
20207;SDS011;10263;48.716;8.760;2022-07-23T07:15:39;5.47;;;4.97;;
20207;SDS011;10263;48.716;8.760;2022-07-23T07:18:06;5.63;;;5.13;;
20207;SDS011;10263;48.716;8.760;2022-07-23T07:20:33;5.50;;;5.00;;
20207;SDS011;10263;48.716;8.760;2022-07-23T07:23:01;5.10;;;4.70;;
20207;SDS011;10263;48.716;8.760;2022-07-23T07:25:28;5.20;;;4.80;;
20207;SDS011;10263;48.716;8.760;2022-07-23T07:27:54;5.40;;;4.90;;
20207;SDS011;10263;48.716;8.760;2022-07-23T07:30:21;5.45;;;4.90;;
20207;SDS011;10263;48.716;8.760;2022-07-23T07:32:48;5.30;;;4.80;;
20207;SDS011;10263;48.716;8.760;2022-07-23T07:35:15;5.05;;;4.60;;
20207;SDS011;10263;48.716;8.760;2022-07-23T07:37:42;5.07;;;4.65;;
20207;SDS011;10263;48.716;8.760;2022-07-23T07:40:10;5.43;;;4.93;;
20207;SDS011;10263;48.716;8.760;2022-07-23T07:42:43;5.35;;;4.85;;
20207;SDS011;10263;48.716;8.760;2022-07-23T07:45:11;6.18;;;5.57;;
20207;SDS011;10263;48.716;8.760;2022-07-23T07:47:38;5.30;;;4.90;;
20207;SDS011;10263;48.716;8.760;2022-07-23T07:50:05;5.43;;;4.60;;
20207;SDS011;10263;48.716;8.760;2022-07-23T07:52:33;6.03;;;5.38;;
20207;SDS011;10263;48.716;8.760;2022-07-23T07:55:01;5.57;;;4.85;;
20207;SDS011;10263;48.716;8.760;2022-07-23T07:57:29;5.38;;;4.50;;
20207;SDS011;10263;48.716;8.760;2022-07-23T07:59:56;5.43;;;4.93;;
20207;SDS011;10263;48.716;8.760;2022-07-23T08:02:23;6.63;;;4.72;;
20207;SDS011;10263;48.716;8.760;2022-07-23T08:04:50;4.97;;;4.47;;
20207;SDS011;10263;48.716;8.760;2022-07-23T08:07:17;5.45;;;4.95;;
20207;SDS011;10263;48.716;8.760;2022-07-23T08:09:44;5.72;;;5.22;;
20207;SDS011;10263;48.716;8.760;2022-07-23T08:12:11;5.68;;;4.78;;
20207;SDS011;10263;48.716;8.760;2022-07-23T08:14:39;5.47;;;4.95;;
20207;SDS011;10263;48.716;8.760;2022-07-23T08:17:06;4.95;;;4.55;;
20207;SDS011;10263;48.716;8.760;2022-07-23T08:19:32;4.90;;;4.50;;
20207;SDS011;10263;48.716;8.760;2022-07-23T08:21:59;5.10;;;4.60;;
20207;SDS011;10263;48.716;8.760;2022-07-23T08:24:26;5.43;;;4.78;;
20207;SDS011;10263;48.716;8.760;2022-07-23T08:26:53;5.43;;;4.53;;
20207;SDS011;10263;48.716;8.760;2022-07-23T08:29:20;6.03;;;5.45;;
20207;SDS011;10263;48.716;8.760;2022-07-23T08:31:48;5.20;;;4.70;;
20207;SDS011;10263;48.716;8.760;2022-07-23T08:34:14;5.75;;;5.15;;
20207;SDS011;10263;48.716;8.760;2022-07-23T08:36:41;5.60;;;5.10;;
20207;SDS011;10263;48.716;8.760;2022-07-23T08:39:08;5.03;;;4.53;;
20207;SDS011;10263;48.716;8.760;2022-07-23T08:41:35;5.22;;;4.75;;
20207;SDS011;10263;48.716;8.760;2022-07-23T08:44:01;5.60;;;5.07;;
20207;SDS011;10263;48.716;8.760;2022-07-23T08:46:28;4.90;;;4.15;;
20207;SDS011;10263;48.716;8.760;2022-07-23T08:48:57;5.07;;;4.53;;
20207;SDS011;10263;48.716;8.760;2022-07-23T08:51:25;4.55;;;4.18;;
20207;SDS011;10263;48.716;8.760;2022-07-23T08:53:53;4.40;;;3.88;;
20207;SDS011;10263;48.716;8.760;2022-07-23T08:56:23;4.80;;;3.80;;
20207;SDS011;10263;48.716;8.760;2022-07-23T08:58:50;4.45;;;3.80;;
20207;SDS011;10263;48.716;8.760;2022-07-23T09:01:19;4.10;;;3.70;;
20207;SDS011;10263;48.716;8.760;2022-07-23T09:03:46;4.20;;;3.90;;
20207;SDS011;10263;48.716;8.760;2022-07-23T09:06:14;4.63;;;3.90;;
20207;SDS011;10263;48.716;8.760;2022-07-23T09:08:41;5.20;;;4.68;;
20207;SDS011;10263;48.716;8.760;2022-07-23T09:11:09;4.13;;;3.83;;
20207;SDS011;10263;48.716;8.760;2022-07-23T09:13:38;4.47;;;4.07;;
20207;SDS011;10263;48.716;8.760;2022-07-23T09:16:08;4.60;;;4.20;;
20207;SDS011;10263;48.716;8.760;2022-07-23T09:18:39;6.82;;;4.15;;
20207;SDS011;10263;48.716;8.760;2022-07-23T09:21:15;4.82;;;4.18;;
20207;SDS011;10263;48.716;8.760;2022-07-23T09:23:44;6.50;;;4.32;;
20207;SDS011;10263;48.716;8.760;2022-07-23T09:26:20;4.28;;;3.75;;
20207;SDS011;10263;48.716;8.760;2022-07-23T09:28:55;3.85;;;3.50;;
20207;SDS011;10263;48.716;8.760;2022-07-23T09:31:24;4.07;;;3.78;;
20207;SDS011;10263;48.716;8.760;2022-07-23T09:34:05;4.30;;;3.90;;
20207;SDS011;10263;48.716;8.760;2022-07-23T09:36:35;4.47;;;4.07;;
20207;SDS011;10263;48.716;8.760;2022-07-23T09:39:03;4.88;;;4.38;;
20207;SDS011;10263;48.716;8.760;2022-07-23T09:41:33;4.38;;;3.95;;
20207;SDS011;10263;48.716;8.760;2022-07-23T09:44:06;4.47;;;4.07;;
20207;SDS011;10263;48.716;8.760;2022-07-23T09:46:38;4.68;;;4.28;;
20207;SDS011;10263;48.716;8.760;2022-07-23T09:49:13;4.40;;;4.00;;
20207;SDS011;10263;48.716;8.760;2022-07-23T09:51:46;4.63;;;4.22;;
20207;SDS011;10263;48.716;8.760;2022-07-23T09:54:21;4.60;;;4.10;;
20207;SDS011;10263;48.716;8.760;2022-07-23T09:56:51;4.50;;;4.10;;
20207;SDS011;10263;48.716;8.760;2022-07-23T09:59:18;4.22;;;3.83;;
20207;SDS011;10263;48.716;8.760;2022-07-23T10:01:49;4.18;;;3.83;;
20207;SDS011;10263;48.716;8.760;2022-07-23T10:04:17;4.63;;;4.22;;
20207;SDS011;10263;48.716;8.760;2022-07-23T10:07:14;4.88;;;4.10;;
20207;SDS011;10263;48.716;8.760;2022-07-23T10:10:05;4.43;;;4.03;;
20207;SDS011;10263;48.716;8.760;2022-07-23T10:12:43;4.65;;;4.20;;
20207;SDS011;10263;48.716;8.760;2022-07-23T10:15:40;4.68;;;4.28;;
20207;SDS011;10263;48.716;8.760;2022-07-23T10:18:08;4.43;;;4.03;;
20207;SDS011;10263;48.716;8.760;2022-07-23T10:20:37;4.00;;;3.70;;
20207;SDS011;10263;48.716;8.760;2022-07-23T10:23:07;4.55;;;4.07;;
20207;SDS011;10263;48.716;8.760;2022-07-23T10:25:46;4.82;;;4.43;;
20207;SDS011;10263;48.716;8.760;2022-07-23T10:31:10;4.70;;;4.30;;
20207;SDS011;10263;48.716;8.760;2022-07-23T10:33:50;5.13;;;4.63;;
20207;SDS011;10263;48.716;8.760;2022-07-23T10:36:27;5.40;;;4.90;;
20207;SDS011;10263;48.716;8.760;2022-07-23T10:39:04;5.25;;;4.80;;
20207;SDS011;10263;48.716;8.760;2022-07-23T10:41:32;7.88;;;5.03;;
20207;SDS011;10263;48.716;8.760;2022-07-23T10:44:07;5.30;;;4.65;;
20207;SDS011;10263;48.716;8.760;2022-07-23T10:46:34;5.15;;;4.68;;
20207;SDS011;10263;48.716;8.760;2022-07-23T10:49:25;5.30;;;4.80;;
20207;SDS011;10263;48.716;8.760;2022-07-23T10:54:46;4.38;;;4.00;;
20207;SDS011;10263;48.716;8.760;2022-07-23T10:57:15;4.88;;;4.30;;
20207;SDS011;10263;48.716;8.760;2022-07-23T11:02:39;5.05;;;4.68;;
20207;SDS011;10263;48.716;8.760;2022-07-23T11:05:07;5.30;;;4.80;;
20207;SDS011;10263;48.716;8.760;2022-07-23T11:07:36;5.22;;;4.72;;
20207;SDS011;10263;48.716;8.760;2022-07-23T11:13:25;5.03;;;4.50;;
20207;SDS011;10263;48.716;8.760;2022-07-23T11:16:12;5.13;;;4.68;;
20207;SDS011;10263;48.716;8.760;2022-07-23T11:18:56;6.75;;;5.97;;
20207;SDS011;10263;48.716;8.760;2022-07-23T11:21:43;4.80;;;4.40;;
20207;SDS011;10263;48.716;8.760;2022-07-23T11:24:21;5.70;;;5.20;;
20207;SDS011;10263;48.716;8.760;2022-07-23T11:26:52;5.35;;;4.93;;
20207;SDS011;10263;48.716;8.760;2022-07-23T11:29:40;5.60;;;4.97;;
20207;SDS011;10263;48.716;8.760;2022-07-23T11:32:11;5.13;;;4.72;;
20207;SDS011;10263;48.716;8.760;2022-07-23T11:34:53;5.20;;;4.70;;
20207;SDS011;10263;48.716;8.760;2022-07-23T11:37:27;4.75;;;4.35;;
20207;SDS011;10263;48.716;8.760;2022-07-23T11:40:00;5.30;;;4.80;;
20207;SDS011;10263;48.716;8.760;2022-07-23T11:42:30;12.43;;;5.97;;
20207;SDS011;10263;48.716;8.760;2022-07-23T11:44:56;5.07;;;4.68;;
20207;SDS011;10263;48.716;8.760;2022-07-23T11:47:23;5.07;;;4.68;;
20207;SDS011;10263;48.716;8.760;2022-07-23T11:49:52;5.75;;;4.68;;
20207;SDS011;10263;48.716;8.760;2022-07-23T11:52:20;5.25;;;4.75;;
20207;SDS011;10263;48.716;8.760;2022-07-23T11:54:48;5.03;;;4.63;;
20207;SDS011;10263;48.716;8.760;2022-07-23T11:57:16;4.95;;;4.55;;
20207;SDS011;10263;48.716;8.760;2022-07-23T11:59:46;5.38;;;4.78;;
20207;SDS011;10263;48.716;8.760;2022-07-23T12:02:15;5.15;;;4.53;;
20207;SDS011;10263;48.716;8.760;2022-07-23T12:04:42;5.38;;;4.93;;
20207;SDS011;10263;48.716;8.760;2022-07-23T12:07:27;5.10;;;4.70;;
20207;SDS011;10263;48.716;8.760;2022-07-23T12:09:56;5.97;;;5.00;;
20207;SDS011;10263;48.716;8.760;2022-07-23T12:12:23;4.90;;;4.50;;
20207;SDS011;10263;48.716;8.760;2022-07-23T12:14:53;4.80;;;4.40;;
20207;SDS011;10263;48.716;8.760;2022-07-23T12:17:21;5.22;;;4.82;;
20207;SDS011;10263;48.716;8.760;2022-07-23T12:19:54;5.25;;;4.75;;
20207;SDS011;10263;48.716;8.760;2022-07-23T12:22:23;4.85;;;4.45;;
20207;SDS011;10263;48.716;8.760;2022-07-23T12:24:57;4.90;;;4.47;;
20207;SDS011;10263;48.716;8.760;2022-07-23T12:27:25;4.75;;;4.35;;
20207;SDS011;10263;48.716;8.760;2022-07-23T12:29:54;5.63;;;4.90;;
20207;SDS011;10263;48.716;8.760;2022-07-23T12:32:21;5.35;;;4.82;;
20207;SDS011;10263;48.716;8.760;2022-07-23T12:34:50;5.55;;;4.70;;
20207;SDS011;10263;48.716;8.760;2022-07-23T12:37:25;5.35;;;4.85;;
20207;SDS011;10263;48.716;8.760;2022-07-23T12:39:53;8.60;;;5.00;;
20207;SDS011;10263;48.716;8.760;2022-07-23T12:42:20;4.63;;;4.22;;
20207;SDS011;10263;48.716;8.760;2022-07-23T12:45:05;7.60;;;5.40;;
20207;SDS011;10263;48.716;8.760;2022-07-23T12:50:42;5.30;;;4.88;;
20207;SDS011;10263;48.716;8.760;2022-07-23T12:53:11;5.35;;;4.93;;
20207;SDS011;10263;48.716;8.760;2022-07-23T12:55:39;5.18;;;4.68;;
20207;SDS011;10263;48.716;8.760;2022-07-23T12:58:08;5.85;;;5.07;;
20207;SDS011;10263;48.716;8.760;2022-07-23T13:00:55;5.80;;;4.93;;
20207;SDS011;10263;48.716;8.760;2022-07-23T13:03:25;4.88;;;4.47;;
20207;SDS011;10263;48.716;8.760;2022-07-23T13:06:01;5.32;;;4.90;;
20207;SDS011;10263;48.716;8.760;2022-07-23T13:08:30;5.22;;;4.72;;
20207;SDS011;10263;48.716;8.760;2022-07-23T13:10:58;5.60;;;4.85;;
20207;SDS011;10263;48.716;8.760;2022-07-23T13:13:26;5.22;;;4.78;;
20207;SDS011;10263;48.716;8.760;2022-07-23T13:15:56;5.72;;;5.15;;
20207;SDS011;10263;48.716;8.760;2022-07-23T13:18:24;5.47;;;5.07;;
20207;SDS011;10263;48.716;8.760;2022-07-23T13:20:51;5.40;;;4.93;;
20207;SDS011;10263;48.716;8.760;2022-07-23T13:23:18;5.82;;;5.35;;
20207;SDS011;10263;48.716;8.760;2022-07-23T13:25:46;5.60;;;5.10;;
20207;SDS011;10263;48.716;8.760;2022-07-23T13:28:13;5.80;;;5.30;;
20207;SDS011;10263;48.716;8.760;2022-07-23T13:30:41;5.22;;;4.75;;
20207;SDS011;10263;48.716;8.760;2022-07-23T13:33:10;5.55;;;5.05;;
20207;SDS011;10263;48.716;8.760;2022-07-23T13:35:37;5.97;;;5.43;;
20207;SDS011;10263;48.716;8.760;2022-07-23T13:38:04;5.30;;;4.80;;
20207;SDS011;10263;48.716;8.760;2022-07-23T13:40:33;5.47;;;5.07;;
20207;SDS011;10263;48.716;8.760;2022-07-23T13:43:01;5.57;;;5.07;;
20207;SDS011;10263;48.716;8.760;2022-07-23T13:45:27;5.13;;;4.68;;
20207;SDS011;10263;48.716;8.760;2022-07-23T13:47:54;4.85;;;4.45;;
20207;SDS011;10263;48.716;8.760;2022-07-23T13:50:22;6.32;;;5.78;;
20207;SDS011;10263;48.716;8.760;2022-07-23T13:52:49;5.68;;;5.00;;
20207;SDS011;10263;48.716;8.760;2022-07-23T13:55:16;5.82;;;5.30;;
20207;SDS011;10263;48.716;8.760;2022-07-23T13:57:43;5.53;;;5.13;;
20207;SDS011;10263;48.716;8.760;2022-07-23T14:00:10;5.97;;;5.47;;
20207;SDS011;10263;48.716;8.760;2022-07-23T14:02:38;5.00;;;4.50;;
20207;SDS011;10263;48.716;8.760;2022-07-23T14:05:08;5.07;;;4.65;;
20207;SDS011;10263;48.716;8.760;2022-07-23T14:07:38;5.85;;;5.35;;
20207;SDS011;10263;48.716;8.760;2022-07-23T14:10:06;5.53;;;4.88;;
20207;SDS011;10263;48.716;8.760;2022-07-23T14:12:35;5.78;;;5.18;;
20207;SDS011;10263;48.716;8.760;2022-07-23T14:15:03;5.05;;;4.65;;
20207;SDS011;10263;48.716;8.760;2022-07-23T14:17:31;5.20;;;4.70;;
20207;SDS011;10263;48.716;8.760;2022-07-23T14:19:59;5.05;;;4.65;;
20207;SDS011;10263;48.716;8.760;2022-07-23T14:22:25;5.05;;;4.30;;
20207;SDS011;10263;48.716;8.760;2022-07-23T14:24:54;4.82;;;4.43;;
20207;SDS011;10263;48.716;8.760;2022-07-23T14:27:22;4.97;;;4.53;;
20207;SDS011;10263;48.716;8.760;2022-07-23T14:29:50;5.75;;;5.15;;
20207;SDS011;10263;48.716;8.760;2022-07-23T14:32:16;5.45;;;4.95;;
20207;SDS011;10263;48.716;8.760;2022-07-23T14:34:43;5.53;;;5.03;;
20207;SDS011;10263;48.716;8.760;2022-07-23T14:37:10;4.82;;;4.43;;
20207;SDS011;10263;48.716;8.760;2022-07-23T14:39:37;4.82;;;4.50;;
20207;SDS011;10263;48.716;8.760;2022-07-23T14:42:06;4.80;;;4.40;;
20207;SDS011;10263;48.716;8.760;2022-07-23T14:44:33;4.90;;;4.40;;
20207;SDS011;10263;48.716;8.760;2022-07-23T14:47:00;5.43;;;4.90;;
20207;SDS011;10263;48.716;8.760;2022-07-23T14:49:28;5.72;;;5.10;;
20207;SDS011;10263;48.716;8.760;2022-07-23T14:51:55;5.93;;;5.43;;
20207;SDS011;10263;48.716;8.760;2022-07-23T14:54:21;5.60;;;5.05;;
20207;SDS011;10263;48.716;8.760;2022-07-23T14:56:48;5.78;;;4.85;;
20207;SDS011;10263;48.716;8.760;2022-07-23T14:59:16;5.50;;;5.00;;
20207;SDS011;10263;48.716;8.760;2022-07-23T15:01:43;7.75;;;5.40;;
20207;SDS011;10263;48.716;8.760;2022-07-23T15:04:10;6.88;;;5.57;;
20207;SDS011;10263;48.716;8.760;2022-07-23T15:06:37;5.38;;;4.85;;
20207;SDS011;10263;48.716;8.760;2022-07-23T15:09:04;5.72;;;5.22;;
20207;SDS011;10263;48.716;8.760;2022-07-23T15:11:31;5.82;;;4.78;;
20207;SDS011;10263;48.716;8.760;2022-07-23T15:13:59;5.32;;;4.93;;